Time,TemperatureF,DewpointF,PressureIn,WindDirection,WindDirectionDegrees,WindSpeedMPH,WindSpeedGustMPH,Humidity,HourlyPrecipIn,Conditions,Clouds,dailyrainin,SolarRadiationWatts/m^2,SoftwareType,DateUTC
2013-05-30 00:00:00,64.4,63.0,29.89,East,99,0.0,1.0,94,0.00,,,0.00,0,weatherlink.com 1.10,2013-05-30 05:00:00,
2013-05-30 00:15:00,64.3,63.0,29.88,ESE,105,0.0,1.0,94,0.01,,,0.00,0,weatherlink.com 1.10,2013-05-30 05:15:00,
2013-05-30 00:30:00,64.4,63.0,29.88,ESE,105,0.0,1.0,94,0.01,,,0.00,0,weatherlink.com 1.10,2013-05-30 05:30:00,
2013-05-30 00:45:00,64.6,63.0,29.89,WNW,300,6.0,6.0,94,0.01,,,0.00,0,weatherlink.com 1.10,2013-05-30 05:45:00,
2013-05-30 01:00:00,64.7,63.0,29.90,WSW,242,4.0,6.0,94,0.01,,,0.00,0,weatherlink.com 1.10,2013-05-30 06:00:00,
2013-05-30 01:15:00,64.6,63.0,29.89,East,94,0.0,2.0,95,0.06,,,0.06,0,weatherlink.com 1.10,2013-05-30 06:15:00,
2013-05-30 01:30:00,64.3,63.0,29.87,ENE,69,1.0,2.0,96,0.11,,,0.11,0,weatherlink.com 1.10,2013-05-30 06:30:00,
2013-05-30 01:45:00,64.1,63.0,29.86,East,82,0.0,2.0,96,0.11,,,0.11,0,weatherlink.com 1.10,2013-05-30 06:45:00,
2013-05-30 02:00:00,63.8,63.0,29.86,East,85,0.0,1.0,96,0.10,,,0.11,0,weatherlink.com 1.10,2013-05-30 07:00:00,
2013-05-30 02:15:00,63.5,62.0,29.85,East,86,0.0,1.0,96,0.03,,,0.11,0,weatherlink.com 1.10,2013-05-30 07:15:00,
2013-05-30 02:30:00,63.4,62.0,29.85,East,87,0.0,2.0,96,0.00,,,0.11,0,weatherlink.com 1.10,2013-05-30 07:30:00,
2013-05-30 02:45:00,63.2,62.0,29.84,East,87,0.0,1.0,97,0.00,,,0.11,0,weatherlink.com 1.10,2013-05-30 07:45:00,
2013-05-30 03:00:00,63.1,62.0,29.84,East,87,0.0,0.0,97,0.00,,,0.11,0,weatherlink.com 1.10,2013-05-30 08:00:00,
2013-05-30 03:15:00,62.8,62.0,29.84,East,87,0.0,0.0,97,0.00,,,0.11,0,weatherlink.com 1.10,2013-05-30 08:15:00,
2013-05-30 03:30:00,62.5,62.0,29.84,East,87,0.0,0.0,97,0.00,,,0.11,0,weatherlink.com 1.10,2013-05-30 08:30:00,
2013-05-30 03:45:00,62.6,62.0,29.84,East,87,0.0,0.0,97,0.00,,,0.11,0,weatherlink.com 1.10,2013-05-30 08:45:00,
2013-05-30 04:00:00,63.0,63.0,29.84,East,87,0.0,0.0,98,0.00,,,0.11,0,weatherlink.com 1.10,2013-05-30 09:00:00,
2013-05-30 04:15:00,63.5,63.0,29.84,East,87,0.0,1.0,98,0.00,,,0.11,0,weatherlink.com 1.10,2013-05-30 09:15:00,
2013-05-30 04:30:00,64.4,64.0,29.83,South,175,0.0,2.0,98,0.00,,,0.11,0,weatherlink.com 1.10,2013-05-30 09:30:00,
2013-05-30 04:45:00,65.0,65.0,29.83,South,175,1.0,1.0,98,0.00,,,0.11,0,weatherlink.com 1.10,2013-05-30 09:45:00,
2013-05-30 05:00:00,65.4,65.0,29.83,South,175,0.0,2.0,98,0.00,,,0.11,0,weatherlink.com 1.10,2013-05-30 10:00:00,
2013-05-30 05:15:00,65.7,65.0,29.83,SSE,149,0.0,2.0,97,0.00,,,0.11,0,weatherlink.com 1.10,2013-05-30 10:15:00,
2013-05-30 05:30:00,65.9,65.0,29.82,SSE,149,0.0,1.0,97,0.00,,,0.11,5,weatherlink.com 1.10,2013-05-30 10:30:00,
2013-05-30 05:45:00,66.1,65.0,29.82,SE,140,1.0,3.0,96,0.00,,,0.11,14,weatherlink.com 1.10,2013-05-30 10:45:00,
2013-05-30 06:00:00,66.5,65.0,29.83,SE,139,1.0,2.0,95,0.00,,,0.11,25,weatherlink.com 1.10,2013-05-30 11:00:00,
2013-05-30 06:15:00,67.1,65.0,29.83,SE,140,0.0,2.0,94,0.00,,,0.11,44,weatherlink.com 1.10,2013-05-30 11:15:00,
2013-05-30 06:30:00,67.7,65.0,29.84,SE,143,1.0,2.0,92,0.00,,,0.11,77,weatherlink.com 1.10,2013-05-30 11:30:00,
2013-05-30 06:45:00,68.5,66.0,29.84,SSE,148,0.0,2.0,91,0.00,,,0.11,113,weatherlink.com 1.10,2013-05-30 11:45:00,
2013-05-30 07:00:00,69.4,66.0,29.84,SSE,148,1.0,2.0,90,0.00,,,0.11,155,weatherlink.com 1.10,2013-05-30 12:00:00,
2013-05-30 07:16:00,70.3,67.0,29.83,SE,146,1.0,3.0,89,0.00,,,0.11,192,weatherlink.com 1.10,2013-05-30 12:16:00,
2013-05-30 07:31:00,71.2,68.0,29.83,South,186,1.0,5.0,88,0.00,,,0.11,241,weatherlink.com 1.10,2013-05-30 12:31:00,
2013-05-30 07:46:00,72.2,68.0,29.83,South,169,0.0,3.0,85,0.00,,,0.11,297,weatherlink.com 1.10,2013-05-30 12:46:00,
2013-05-30 08:01:00,73.0,68.0,29.83,SSE,159,1.0,4.0,85,0.00,,,0.11,345,weatherlink.com 1.10,2013-05-30 13:01:00,
2013-05-30 08:16:00,73.7,69.0,29.83,SSE,161,1.0,5.0,84,0.00,,,0.11,381,weatherlink.com 1.10,2013-05-30 13:16:00,
2013-05-30 08:31:00,74.6,70.0,29.83,South,169,1.0,5.0,84,0.00,,,0.11,413,weatherlink.com 1.10,2013-05-30 13:31:00,
2013-05-30 08:46:00,75.5,70.0,29.82,SE,140,0.0,4.0,82,0.00,,,0.11,482,weatherlink.com 1.10,2013-05-30 13:46:00,
2013-05-30 09:01:00,76.0,69.0,29.83,South,181,3.0,5.0,80,0.00,,,0.11,510,weatherlink.com 1.10,2013-05-30 14:01:00,
2013-05-30 09:16:00,76.9,70.0,29.82,SSE,163,3.0,4.0,79,0.00,,,0.11,557,weatherlink.com 1.10,2013-05-30 14:16:00,
2013-05-30 09:31:00,77.3,70.0,29.82,South,172,1.0,4.0,78,0.00,,,0.11,610,weatherlink.com 1.10,2013-05-30 14:31:00,
2013-05-30 09:46:00,77.6,70.0,29.82,South,176,2.0,5.0,76,0.00,,,0.11,684,weatherlink.com 1.10,2013-05-30 14:46:00,
2013-05-30 10:01:00,78.0,70.0,29.81,SSE,159,3.0,5.0,77,0.00,,,0.11,773,weatherlink.com 1.10,2013-05-30 15:01:00,
2013-05-30 10:16:00,78.0,70.0,29.82,South,171,3.0,5.0,76,0.00,,,0.11,290,weatherlink.com 1.10,2013-05-30 15:16:00,
2013-05-30 10:31:00,78.2,70.0,29.81,South,169,0.0,6.0,76,0.00,,,0.11,770,weatherlink.com 1.10,2013-05-30 15:31:00,
2013-05-30 10:46:00,79.5,72.0,29.81,SSE,164,1.0,4.0,77,0.00,,,0.11,826,weatherlink.com 1.10,2013-05-30 15:46:00,
2013-05-30 11:01:00,79.9,71.0,29.80,South,173,2.0,5.0,73,0.00,,,0.11,712,weatherlink.com 1.10,2013-05-30 16:01:00,
2013-05-30 11:16:00,80.1,70.0,29.80,South,169,2.0,4.0,72,0.00,,,0.11,854,weatherlink.com 1.10,2013-05-30 16:16:00,
2013-05-30 11:31:00,80.9,72.0,29.80,South,171,3.0,6.0,73,0.00,,,0.11,974,weatherlink.com 1.10,2013-05-30 16:31:00,
2013-05-30 11:47:00,80.7,70.0,29.81,South,188,2.0,6.0,70,0.00,,,0.11,294,weatherlink.com 1.10,2013-05-30 16:47:00,
2013-05-30 12:02:00,79.8,71.0,29.80,SSE,165,2.0,8.0,74,0.00,,,0.11,928,weatherlink.com 1.10,2013-05-30 17:02:00,
2013-05-30 12:17:00,80.9,71.0,29.80,SSE,167,2.0,4.0,71,0.00,,,0.11,940,weatherlink.com 1.10,2013-05-30 17:17:00,
2013-05-30 12:32:00,80.3,69.0,29.80,SSE,149,3.0,6.0,69,0.00,,,0.11,1025,weatherlink.com 1.10,2013-05-30 17:32:00,
2013-05-30 12:47:00,82.0,71.0,29.79,SSE,155,3.0,7.0,70,0.00,,,0.11,882,weatherlink.com 1.10,2013-05-30 17:47:00,
2013-05-30 13:02:00,82.1,71.0,29.78,SE,142,3.0,6.0,68,0.00,,,0.11,1020,weatherlink.com 1.10,2013-05-30 18:02:00,
2013-05-30 13:17:00,82.0,70.0,29.78,SSE,147,2.0,7.0,66,0.00,,,0.11,967,weatherlink.com 1.10,2013-05-30 18:17:00,
2013-05-30 13:32:00,82.6,70.0,29.77,SSE,163,6.0,10.0,65,0.00,,,0.11,933,weatherlink.com 1.10,2013-05-30 18:32:00,
2013-05-30 13:47:00,83.7,70.0,29.77,SSE,158,4.0,7.0,64,0.00,,,0.11,965,weatherlink.com 1.10,2013-05-30 18:47:00,
2013-05-30 14:02:00,83.9,70.0,29.76,SSE,152,3.0,7.0,63,0.00,,,0.11,933,weatherlink.com 1.10,2013-05-30 19:02:00,
2013-05-30 14:17:00,81.7,69.0,29.75,South,173,2.0,6.0,65,0.00,,,0.11,123,weatherlink.com 1.10,2013-05-30 19:17:00,
2013-05-30 14:32:00,77.7,66.0,29.76,SSW,205,1.0,10.0,67,0.00,,,0.11,211,weatherlink.com 1.10,2013-05-30 19:32:00,
2013-05-30 14:47:00,77.4,68.0,29.75,WSW,250,6.0,8.0,73,0.00,,,0.11,668,weatherlink.com 1.10,2013-05-30 19:47:00,
2013-05-30 15:02:00,80.3,69.0,29.75,South,176,1.0,5.0,68,0.00,,,0.11,223,weatherlink.com 1.10,2013-05-30 20:02:00,
2013-05-30 15:17:00,83.8,68.0,29.74,SSW,202,3.0,5.0,60,0.00,,,0.11,860,weatherlink.com 1.10,2013-05-30 20:17:00,
2013-05-30 15:32:00,84.3,69.0,29.73,South,174,2.0,4.0,61,0.00,,,0.11,830,weatherlink.com 1.10,2013-05-30 20:32:00,
2013-05-30 15:47:00,84.6,70.0,29.73,South,169,3.0,6.0,61,0.00,,,0.11,346,weatherlink.com 1.10,2013-05-30 20:47:00,
2013-05-30 16:02:00,83.5,69.0,29.72,South,170,3.0,5.0,62,0.00,,,0.11,204,weatherlink.com 1.10,2013-05-30 21:02:00,
2013-05-30 16:17:00,83.8,69.0,29.71,SSE,161,1.0,6.0,62,0.00,,,0.11,749,weatherlink.com 1.10,2013-05-30 21:17:00,
2013-05-30 16:32:00,83.0,69.0,29.71,SSE,161,4.0,5.0,62,0.00,,,0.11,362,weatherlink.com 1.10,2013-05-30 21:32:00,
2013-05-30 16:47:00,82.7,68.0,29.71,South,171,3.0,5.0,61,0.00,,,0.11,383,weatherlink.com 1.10,2013-05-30 21:47:00,
2013-05-30 17:02:00,82.0,68.0,29.71,South,181,1.0,5.0,63,0.00,,,0.11,487,weatherlink.com 1.10,2013-05-30 22:02:00,
2013-05-30 17:17:00,82.3,68.0,29.71,South,171,1.0,5.0,63,0.00,,,0.11,278,weatherlink.com 1.10,2013-05-30 22:17:00,
2013-05-30 17:32:00,82.7,70.0,29.71,SSE,163,2.0,5.0,65,0.00,,,0.11,464,weatherlink.com 1.10,2013-05-30 22:32:00,
2013-05-30 17:47:00,82.5,69.0,29.71,SSE,163,3.0,5.0,63,0.00,,,0.11,410,weatherlink.com 1.10,2013-05-30 22:47:00,
2013-05-30 18:02:00,82.3,68.0,29.70,SSE,153,5.0,9.0,63,0.00,,,0.11,174,weatherlink.com 1.10,2013-05-30 23:02:00,
2013-05-30 18:17:00,78.9,68.0,29.70,SSE,151,3.0,4.0,70,0.00,,,0.11,26,weatherlink.com 1.10,2013-05-30 23:17:00,
2013-05-30 18:32:00,77.5,67.0,29.71,South,178,3.0,7.0,70,0.00,,,0.11,62,weatherlink.com 1.10,2013-05-30 23:32:00,
2013-05-30 18:47:00,77.8,69.0,29.71,SSE,162,2.0,5.0,73,0.00,,,0.11,311,weatherlink.com 1.10,2013-05-30 23:47:00,
2013-05-30 19:02:00,75.7,68.0,29.72,SSE,161,2.0,8.0,77,0.00,,,0.11,109,weatherlink.com 1.10,2013-05-31 00:02:00,
2013-05-30 19:17:00,74.6,68.0,29.73,SE,144,2.0,3.0,80,0.00,,,0.11,93,weatherlink.com 1.10,2013-05-31 00:17:00,
2013-05-30 19:32:00,74.1,68.0,29.72,SSE,161,2.0,5.0,81,0.00,,,0.11,30,weatherlink.com 1.10,2013-05-31 00:32:00,
2013-05-30 19:47:00,74.0,68.0,29.72,SE,142,2.0,6.0,82,0.00,,,0.11,18,weatherlink.com 1.10,2013-05-31 00:47:00,
2013-05-30 20:02:00,73.8,68.0,29.74,SSE,150,2.0,5.0,81,0.00,,,0.11,9,weatherlink.com 1.10,2013-05-31 01:02:00,
2013-05-30 20:17:00,74.1,66.0,29.76,South,180,4.0,11.0,77,0.01,,,0.12,0,weatherlink.com 1.10,2013-05-31 01:17:00,
2013-05-30 20:32:00,67.6,65.0,29.75,South,182,1.0,5.0,90,0.13,,,0.24,0,weatherlink.com 1.10,2013-05-31 01:32:00,
2013-05-30 20:47:00,66.9,65.0,29.78,SSE,161,1.0,3.0,93,0.15,,,0.26,0,weatherlink.com 1.10,2013-05-31 01:47:00,
2013-05-30 21:02:00,66.6,65.0,29.76,SSE,147,0.0,2.0,94,0.19,,,0.30,0,weatherlink.com 1.10,2013-05-31 02:02:00,
2013-05-30 21:17:00,66.3,65.0,29.76,SSE,152,1.0,2.0,95,0.18,,,0.31,0,weatherlink.com 1.10,2013-05-31 02:17:00,
2013-05-30 21:32:00,66.0,65.0,29.78,SSE,153,1.0,3.0,95,0.08,,,0.32,0,weatherlink.com 1.10,2013-05-31 02:32:00,
2013-05-30 21:47:00,65.7,65.0,29.79,SSE,155,0.0,4.0,96,0.06,,,0.32,0,weatherlink.com 1.10,2013-05-31 02:47:00,
2013-05-30 22:03:00,65.2,64.0,29.78,SSE,149,0.0,3.0,95,0.02,,,0.32,0,weatherlink.com 1.10,2013-05-31 03:03:00,
2013-05-30 22:18:00,64.8,63.0,29.77,SE,138,1.0,4.0,94,0.01,,,0.32,0,weatherlink.com 1.10,2013-05-31 03:18:00,
2013-05-30 22:33:00,64.6,63.0,29.77,SSE,154,1.0,2.0,94,0.00,,,0.32,0,weatherlink.com 1.10,2013-05-31 03:33:00,
2013-05-30 22:48:00,64.5,63.0,29.78,SSE,161,1.0,3.0,93,0.00,,,0.32,0,weatherlink.com 1.10,2013-05-31 03:48:00,
2013-05-30 23:03:00,64.6,62.0,29.79,SSE,157,1.0,4.0,92,0.00,,,0.32,0,weatherlink.com 1.10,2013-05-31 04:03:00,
2013-05-30 23:18:00,64.6,62.0,29.80,SSE,148,0.0,5.0,92,0.00,,,0.32,0,weatherlink.com 1.10,2013-05-31 04:18:00,
2013-05-30 23:33:00,64.2,62.0,29.80,SSE,165,2.0,3.0,92,0.01,,,0.33,0,weatherlink.com 1.10,2013-05-31 04:33:00,
2013-05-30 23:48:00,63.7,62.0,29.78,SSE,153,1.0,3.0,94,0.02,,,0.34,0,weatherlink.com 1.10,2013-05-31 04:48:00,